Latest Weather Observations for Casterton

IDV60801

Issued at 7:32 am EDT Saturday 16 October 2021 (issued every 10 minutes, with the page automatically refreshed every 10 minutes)

About weather observations | Map of weather stations | Latest weather observations for VIC | Other Formats
Station Details ID: 090182 Name: CASTERTON Lat: -37.58 Lon: 141.33 Height: 130.6 m
Data from the previous 72 hours. | See also: Recent months at Casterton
Date/Time
EDT
Temp
°C
App
Temp
°C
Dew
Point
°C
Rel
Hum
%
Delta-T
°C
Wind Press
QNH
hPa
Press
MSL
hPa
Rain since
9am
mm
Dir  Spd
km/h
Gust
km/h
Spd
kts
Gust
kts
16/07:30am 8.7 6.3 8.7 100 0.0 WSW 11 17 6 9 1012.4 1012.3 2.6
16/07:00am 8.6 6.6 8.6 100 0.0 WSW 9 11 5 6 1011.8 1011.8 2.6
16/06:30am 8.6 5.8 8.6 100 0.0 WSW 13 17 7 9 1011.3 1011.3 2.6
16/06:00am 8.5 5.3 8.5 100 0.0 WSW 15 19 8 10 1010.9 1010.9 2.6
16/05:30am 8.6 5.1 8.6 100 0.0 WSW 17 24 9 13 1010.8 1010.8 2.6
16/05:00am 8.4 5.2 8.4 100 0.0 WSW 15 20 8 11 1010.6 1010.6 2.6
16/04:30am 8.8 5.3 8.8 100 0.0 WSW 17 24 9 13 1010.6 1010.6 2.6
16/04:00am 8.8 5.3 8.8 100 0.0 WSW 17 22 9 12 1010.5 1010.5 2.6
16/03:30am 9.0 5.2 9.0 100 0.0 WSW 19 28 10 15 1010.4 1010.4 2.4
16/03:00am 9.0 5.6 9.0 100 0.0 WSW 17 22 9 12 1010.4 1010.4 2.4
16/02:30am 9.3 5.4 9.3 100 0.0 WSW 20 30 11 16 1010.2 1010.2 2.4
16/02:00am 9.8 6.2 9.7 99 0.1 WSW 19 35 10 19 1010.1 1010.1 2.4
16/01:30am 9.8 6.5 9.7 99 0.1 WSW 17 26 9 14 1010.2 1010.2 2.4
16/01:00am 9.9 6.3 9.8 99 0.1 WSW 19 28 10 15 1010.1 1010.1 2.4
16/12:30am 9.9 6.3 9.8 99 0.1 WSW 19 24 10 13 1010.3 1010.3 2.4
16/12:00am 9.9 6.1 9.8 99 0.1 WSW 20 32 11 17 1010.2 1010.2 2.4
 
Date/Time
EDT
Temp
°C
App
Temp
°C
Dew
Point
°C
Rel
Hum
%
Delta-T
°C
Wind Press
QNH
hPa
Press
MSL
hPa
Rain since
9am
mm
Dir  Spd
km/h
Gust
km/h
Spd
kts
Gust
kts
15/11:30pm 9.9 6.1 9.9 100 0.0 WSW 20 32 11 17 1010.2 1010.2 2.4
15/11:00pm 9.9 5.4 9.9 100 0.0 WSW 24 33 13 18 1010.0 1010.0 2.4
15/10:30pm 10.1 6.4 10.1 100 0.0 WSW 20 32 11 17 1009.9 1009.9 2.4
15/10:00pm 10.1 6.4 10.1 100 0.0 WSW 20 30 11 16 1009.7 1009.7 2.4
15/09:30pm 9.9 6.1 9.9 100 0.0 WSW 20 30 11 16 1009.7 1009.7 2.4
15/09:00pm 9.7 6.1 9.7 100 0.0 WSW 19 24 10 13 1009.5 1009.5 2.4
15/08:30pm 9.8 5.6 9.8 100 0.0 WSW 22 35 12 19 1009.0 1009.0 2.4
15/08:00pm 9.8 5.2 9.8 100 0.0 WSW 24 41 13 22 1008.7 1008.7 2.4
15/07:30pm 10.0 5.5 10.0 100 0.0 SW 24 33 13 18 1008.3 1008.3 2.4
15/07:00pm 10.5 7.1 10.5 100 0.0 SW 19 26 10 14 1008.0 1008.0 2.4
15/06:30pm 10.7 7.1 10.7 100 0.0 SW 20 32 11 17 1007.7 1007.7 2.4
15/06:00pm 10.5 7.5 10.5 100 0.0 WSW 17 28 9 15 1007.3 1007.2 2.4
15/05:30pm 10.2 6.7 10.2 100 0.0 SW 19 26 10 14 1007.0 1006.9 2.4
15/05:00pm 9.8 5.6 9.8 100 0.0 SW 22 35 12 19 1006.9 1006.8 2.4
15/04:30pm 10.9 6.3 10.9 100 0.0 WSW 26 35 14 19 1006.6 1006.5 1.6
15/04:00pm 11.0 7.7 11.0 100 0.0 SW 19 26 10 14 1006.6 1006.5 1.6
15/03:30pm 11.7 8.6 11.5 99 0.1 SW 19 26 10 14 1006.5 1006.4 1.2
15/03:00pm 11.2 7.0 11.0 99 0.1 SW 24 35 13 19 1006.7 1006.6 1.2
15/02:30pm 12.8 9.8 12.6 99 0.1 SW 20 30 11 16 1006.6 1006.5 1.2
15/02:00pm 12.8 10.1 12.8 100 0.0 SW 19 26 10 14 1006.7 1006.6 1.2
15/01:30pm 11.1 6.1 11.1 100 0.0 SW 28 46 15 25 1006.9 1006.8 1.2
15/01:29pm 11.1 6.1 11.1 100 0.0 SW 28 46 15 25 1006.8 1006.7 1.2
15/01:00pm 12.5 8.5 11.7 95 0.4 SW 24 39 13 21 1006.5 1006.4 1.2
15/12:30pm 12.6 7.7 12.4 99 0.1 SW 30 43 16 23 1006.5 1006.4 1.2
15/12:14pm 11.9 7.2 11.9 100 0.0 SSW 28 50 15 27 1006.5 1006.4 1.2
15/12:00pm 12.7 9.4 12.7 100 0.0 SW 22 35 12 19 1006.5 1006.4 1.2
15/11:30am 11.1 7.7 11.1 100 0.0 W 20 32 11 17 1006.6 1006.5 1.0
15/11:00am 12.2 8.3 12.2 100 0.0 WSW 24 39 13 21 1006.6 1006.5 0.0
15/10:30am 12.3 8.5 12.3 100 0.0 WSW 24 35 13 19 1006.6 1006.5 0.0
15/10:00am 11.8 8.6 11.8 100 0.0 WSW 20 30 11 16 1006.7 1006.6 0.0
15/09:30am 10.4 - - - - WSW 17 24 9 13 1006.8 1006.7 0.0
15/09:00am 9.2 - - - - W 11 17 6 9 1006.9 1006.8 0.2
15/08:30am 8.4 - - - - W 7 9 4 5 1006.8 1006.7 0.2
15/08:00am 7.5 - - - - W 7 11 4 6 1006.5 1006.4 0.0
15/07:30am 6.4 - - - - W 7 9 4 5 1006.1 1006.0 0.0
15/07:00am 4.9 - - - - W 6 7 3 4 1005.8 1005.7 0.0
15/06:30am 4.5 - - - - SW 6 7 3 4 1005.5 1005.4 0.0
15/06:00am 5.7 - - - - SSW 6 7 3 4 1005.1 1005.0 0.0
15/05:30am 5.7 - - - - SSW 7 9 4 5 1004.8 1004.7 0.0
15/05:00am 6.0 - - - - SSW 6 7 3 4 1004.6 1004.5 0.0
15/04:30am 5.6 - - - - S 7 9 4 5 1004.3 1004.2 0.0
15/04:00am 6.0 - - - - SSW 7 9 4 5 1004.2 1004.1 0.0
15/03:30am 4.6 3.4 4.6 100 0.0 CALM 0 0 0 0 1004.2 1004.1 0.0
15/03:00am 4.8 2.3 4.8 100 0.0 SSW 7 9 4 5 1004.0 1003.9 0.0
15/02:30am 5.7 4.7 5.7 100 0.0 CALM 0 0 0 0 1003.8 1003.8 0.0
15/02:00am 5.3 3.1 5.3 100 0.0 S 6 7 3 4 1004.3 1004.2 0.0
15/01:30am 6.6 5.8 6.6 100 0.0 CALM 0 0 0 0 1004.5 1004.4 0.0
15/01:00am 6.8 6.1 6.8 100 0.0 CALM 0 2 0 1 1004.6 1004.5 0.0
15/12:30am 7.6 5.9 7.6 100 0.0 ENE 6 9 3 5 1004.5 1004.4 0.0
15/12:00am 7.8 7.3 7.8 100 0.0 CALM 0 2 0 1 1004.7 1004.6 0.0
 
Date/Time
EDT
Temp
°C
App
Temp
°C
Dew
Point
°C
Rel
Hum
%
Delta-T
°C
Wind Press
QNH
hPa
Press
MSL
hPa
Rain since
9am
mm
Dir  Spd
km/h
Gust
km/h
Spd
kts
Gust
kts
14/11:30pm 8.7 6.7 8.7 100 0.0 E 9 15 5 8 1004.7 1004.6 0.0
14/11:00pm 9.2 7.0 9.2 100 0.0 SE 11 15 6 8 1004.8 1004.7 0.0
14/10:30pm 9.1 7.2 9.1 100 0.0 E 9 11 5 6 1004.9 1004.8 0.0
14/10:00pm 8.0 6.2 8.0 100 0.0 ESE 7 9 4 5 1004.8 1004.7 0.0
14/09:30pm 8.5 6.8 8.5 100 0.0 ENE 7 9 4 5 1004.5 1004.4 0.0
14/09:00pm 9.0 7.1 9.0 100 0.0 SSE 9 13 5 7 1004.3 1004.2 0.0
14/08:30pm 9.4 7.2 9.4 100 0.0 SSE 11 17 6 9 1004.0 1003.9 0.0
14/08:00pm 9.8 7.3 9.8 100 0.0 S 13 19 7 10 1003.8 1003.8 0.0
14/07:30pm 10.3 7.1 10.1 99 0.1 S 17 24 9 13 1003.6 1003.6 0.0
14/07:00pm 11.5 9.0 11.2 98 0.2 SSW 15 26 8 14 1003.2 1003.2 0.0
14/06:30pm 12.7 11.4 9.2 79 1.8 E 6 7 3 4 1002.7 1002.7 0.0
14/06:00pm 13.3 10.9 10.1 81 1.7 NE 13 17 7 9 1002.4 1002.4 0.0
14/05:30pm 12.8 10.4 10.2 84 1.3 NNE 13 20 7 11 1002.5 1002.5 0.0
14/05:00pm 12.8 9.6 11.2 90 0.9 NNE 19 28 10 15 1002.2 1002.2 0.0
14/04:30pm 13.0 9.5 10.9 87 1.1 NNE 20 28 11 15 1002.1 1002.1 0.0
14/04:00pm 13.3 10.8 8.4 72 2.5 NE 11 15 6 8 1002.1 1002.1 0.0
14/03:30pm 12.7 9.9 9.9 83 1.4 NNE 15 20 8 11 1002.5 1002.5 0.0
14/03:00pm 14.2 10.4 7.5 64 3.3 N 17 20 9 11 1002.5 1002.5 0.0
14/02:30pm 15.7 12.8 8.0 60 3.9 NNW 13 19 7 10 1002.4 1002.4 0.0
14/02:00pm 14.9 12.8 6.7 58 4.0 NW 7 13 4 7 1002.6 1002.6 0.0
14/01:30pm 16.1 13.4 9.1 63 3.6 NNW 13 26 7 14 1002.8 1002.8 0.0
14/01:00pm 15.2 11.9 8.2 63 3.6 N 15 24 8 13 1003.1 1003.1 0.0
14/12:30pm 15.7 13.5 10.7 72 2.7 NNW 13 19 7 10 1003.4 1003.4 0.0
14/12:00pm 13.6 10.7 8.0 69 2.8 NNW 13 17 7 9 1003.7 1003.7 0.0
14/11:30am 12.9 10.3 9.2 78 1.9 NW 13 17 7 9 1003.8 1003.8 0.0
14/11:00am 13.5 11.0 9.6 77 2.0 NNW 13 20 7 11 1004.1 1004.0 0.0
14/10:30am 12.4 10.4 10.1 86 1.2 NW 11 17 6 9 1004.3 1004.2 0.0
14/10:00am 10.2 9.0 10.2 100 0.0 NW 7 13 4 7 1004.2 1004.1 0.0
14/09:30am 9.1 - - - - N 6 9 3 5 1004.1 1004.0 0.0
14/09:00am 8.4 - - - - ENE 6 9 3 5 1004.0 1003.9 2.2
14/08:30am 6.7 - - - - CALM 0 0 0 0 1004.1 1004.0 2.2
14/08:00am 4.9 - - - - E 2 6 1 3 1004.0 1003.9 2.2
14/07:30am 3.5 - - - - CALM 0 0 0 0 1003.7 1003.7 2.2
14/07:00am 3.3 - - - - NE 7 9 4 5 1003.4 1003.4 2.2
14/06:30am 3.2 0.6 3.2 100 0.0 ENE 6 7 3 4 1003.2 1003.2 2.2
14/06:00am 3.3 0.7 3.3 100 0.0 ENE 6 9 3 5 1003.0 1003.0 2.2
14/05:30am 4.1 - - - - CALM 0 0 0 0 1003.0 1003.0 2.2
14/05:00am 4.3 1.9 4.3 100 0.0 NE 6 7 3 4 1003.3 1003.3 1.8
14/04:30am 4.0 1.5 4.0 100 0.0 NNE 6 7 3 4 1003.5 1003.5 1.8
14/04:00am 5.5 3.2 5.5 100 0.0 NNE 7 11 4 6 1003.8 1003.8 1.8
14/03:30am 6.1 - - - - N 6 9 3 5 1004.2 1004.1 1.8
14/03:00am 5.2 3.4 5.2 100 0.0 NNE 4 6 2 3 1004.5 1004.4 1.8
14/02:30am 5.7 3.4 5.7 100 0.0 NNE 7 7 4 4 1004.8 1004.7 1.8
14/02:00am 6.1 5.2 6.1 100 0.0 CALM 0 0 0 0 1005.0 1004.9 1.8
14/01:30am 5.6 4.6 5.6 100 0.0 CALM 0 6 0 3 1005.0 1004.9 1.8
14/01:00am 6.6 5.8 6.6 100 0.0 CALM 0 0 0 0 1005.0 1004.9 1.8
14/12:30am 6.9 6.2 6.9 100 0.0 CALM 0 0 0 0 1005.1 1005.0 1.8
14/12:00am 7.1 6.4 7.1 100 0.0 CALM 0 0 0 0 1005.6 1005.5 1.8
 
Date/Time
EDT
Temp
°C
App
Temp
°C
Dew
Point
°C
Rel
Hum
%
Delta-T
°C
Wind Press
QNH
hPa
Press
MSL
hPa
Rain since
9am
mm
Dir  Spd
km/h
Gust
km/h
Spd
kts
Gust
kts
13/11:30pm 7.4 6.8 7.4 100 0.0 CALM 0 0 0 0 1005.6 1005.5 1.8
13/11:00pm 7.3 6.3 7.3 100 0.0 NNE 2 6 1 3 1006.0 1005.9 1.8
13/10:30pm 8.3 7.9 8.3 100 0.0 CALM 0 2 0 1 1006.2 1006.1 1.8
13/10:00pm 7.6 5.9 7.6 100 0.0 E 6 7 3 4 1006.2 1006.1 1.8
13/09:30pm 8.0 7.5 8.0 100 0.0 CALM 0 0 0 0 1006.0 1005.9 1.8
13/09:00pm 8.8 7.4 8.8 100 0.0 E 6 7 3 4 1005.8 1005.7 1.8
13/08:30pm 9.3 8.0 9.3 100 0.0 E 6 7 3 4 1005.4 1005.3 1.8
13/08:00pm 10.0 9.3 10.0 100 0.0 NE 4 6 2 3 1005.3 1005.2 1.8
13/07:30pm 10.5 9.6 10.5 100 0.0 NNE 6 7 3 4 1005.0 1004.9 1.8
13/07:00pm 10.6 9.5 10.6 100 0.0 NNW 7 11 4 6 1004.9 1004.8 1.8
13/06:30pm 10.6 9.5 10.6 100 0.0 NNW 7 9 4 5 1004.4 1004.3 1.8
13/06:00pm 10.8 9.4 10.8 100 0.0 N 9 13 5 7 1004.3 1004.2 1.8
13/05:30pm 10.9 9.5 10.9 100 0.0 NNW 9 15 5 8 1004.1 1004.0 1.8
13/05:00pm 10.7 8.5 10.7 100 0.0 NNW 13 17 7 9 1004.2 1004.1 1.8
13/04:30pm 10.8 8.6 10.8 100 0.0 NNW 13 19 7 10 1004.4 1004.3 1.6
13/04:00pm 11.1 9.0 11.1 100 0.0 NW 13 19 7 10 1004.6 1004.5 1.2
13/03:30pm 10.8 7.8 10.8 100 0.0 NW 17 26 9 14 1004.6 1004.5 1.0
13/03:00pm 11.4 8.6 11.4 100 0.0 NW 17 24 9 13 1004.6 1004.5 0.8
13/02:30pm 11.5 7.0 11.5 100 0.0 WNW 26 35 14 19 1004.3 1004.2 0.8
13/02:00pm 12.2 9.0 12.0 99 0.1 WNW 20 32 11 17 1004.3 1004.2 0.8
13/01:30pm 12.6 9.5 11.5 93 0.6 NNW 19 24 10 13 1004.1 1004.0 0.6
13/01:00pm 15.6 9.6 8.6 63 3.6 NNW 30 41 16 22 1003.6 1003.6 0.0
13/12:30pm 16.4 11.2 8.9 61 3.9 NNW 26 44 14 24 1004.1 1004.0 0.0
13/12:00pm 17.0 13.2 11.3 69 3.1 NNE 22 33 12 18 1004.0 1003.9 0.0
13/11:30am 17.6 15.0 13.1 75 2.5 NNE 19 30 10 16 1004.3 1004.2 0.0
13/11:00am 16.2 13.0 13.1 82 1.7 NE 22 28 12 15 1004.4 1004.3 0.0
13/10:30am 15.9 12.2 12.6 81 1.8 NNE 24 37 13 20 1004.9 1004.8 0.0
13/10:00am 15.2 12.0 13.1 87 1.2 N 22 35 12 19 1005.3 1005.2 0.0
13/09:30am 14.3 10.7 12.9 91 0.8 NNE 24 37 13 20 1005.2 1005.1 0.0
13/09:01am 13.3 8.8 12.5 95 0.4 NNE 28 46 15 25 1005.2 1005.1 0.0
13/09:00am 13.3 9.1 12.5 95 0.4 NNE 26 39 14 21 1005.2 1005.1 0.0
13/08:30am 13.4 8.7 13.2 99 0.1 NNE 30 44 16 24 1005.1 1005.0 0.0
13/08:00am 12.0 8.0 11.8 99 0.1 NNE 24 35 13 19 1005.3 1005.2 0.0

Other formats

Comma delimited format used in spreadsheet applications
http://www.bom.gov.au/fwo/IDV60801/IDV60801.95825.axf

JavaScript Object Notation format (JSON) in row-major order
http://www.bom.gov.au/fwo/IDV60801/IDV60801.95825.json

Data quality

Most of these data are generated automatically and are frequently updated. Quality checks on data are not normally performed. It is possible for incorrect values to appear. Refer to information at About Latest Weather Observations and please check the disclaimer before using these data.